Time;durP1;ratioP1;P1;durP2;ratioP2;P2;SDS_P1;SDS_P2;PMS_P1;PMS_P2;Temp;Humidity;BMP_temperature;BMP_pressure;BME280_temperature;BME280_humidity;BME280_pressure;Samples;Min_cycle;Max_cycle;Signal;HPM_P1;HPM_P2
2021/03/12 00:01:22;;;;;;;10.73;2.33;;;6.60;99.90;;;6.94;86.19;99242.22;5032776;28;20025;-84
2021/03/12 00:03:48;;;;;;;12.75;2.15;;;6.50;99.90;;;6.95;85.13;99235.50;5034796;28;20026;-84
2021/03/12 00:06:14;;;;;;;7.60;1.88;;;6.60;99.90;;;6.97;84.28;99247.06;5034333;28;20033;-85
2021/03/12 00:08:45;;;;;;;7.97;1.80;;;6.50;99.90;;;6.95;84.89;99247.41;5032835;28;20036;-84
2021/03/12 00:11:14;;;;;;;11.25;2.20;;;6.60;99.90;;;6.97;84.31;99249.84;5033880;28;20033;-85
2021/03/12 00:13:41;;;;;;;10.38;1.70;;;6.50;99.90;;;6.96;85.04;99256.56;5034131;28;20537;-84
2021/03/12 00:16:08;;;;;;;9.85;1.70;;;6.50;99.90;;;6.94;84.75;99250.56;5035331;28;20082;-86
2021/03/12 00:18:45;;;;;;;8.82;1.77;;;6.60;99.90;;;6.98;83.33;99245.88;5035773;28;20026;-84
2021/03/12 00:21:14;;;;;;;4.95;1.40;;;6.60;99.90;;;7.03;81.04;99251.16;5036646;28;20519;-83
2021/03/12 00:23:40;;;;;;;7.95;1.48;;;6.60;99.90;;;7.06;81.07;99259.53;5035648;28;20054;-84
2021/03/12 00:26:07;;;;;;;5.97;1.50;;;6.70;99.90;;;7.09;81.05;99277.44;5034303;28;20504;-84
2021/03/12 00:28:34;;;;;;;7.25;2.50;;;6.70;99.90;;;7.07;80.29;99268.66;5036280;28;20092;-82
2021/03/12 00:31:04;;;;;;;6.63;1.70;;;6.70;99.90;;;7.07;80.30;99274.19;5034397;28;20100;-83
2021/03/12 00:33:30;;;;;;;5.43;2.10;;;6.70;99.90;;;7.04;79.77;99269.38;5033957;28;20542;-83
2021/03/12 00:35:57;;;;;;;6.05;2.65;;;6.80;99.90;;;7.06;78.84;99294.81;5033739;28;20083;-85
2021/03/12 00:38:23;;;;;;;8.63;2.30;;;6.80;99.90;;;7.05;79.89;99298.75;5035347;28;20049;-83
2021/03/12 00:41:05;;;;;;;5.75;2.35;;;6.70;99.90;;;7.05;79.26;99299.56;5038839;28;20527;-83
2021/03/12 00:43:31;;;;;;;9.55;3.20;;;6.70;99.90;;;7.02;79.53;99303.09;5039447;28;20029;-83
2021/03/12 00:46:11;;;;;;;8.52;2.28;;;6.70;99.90;;;7.02;79.93;99316.97;5038407;28;20039;-84
2021/03/12 00:48:38;;;;;;;5.78;2.55;;;6.70;99.90;;;6.92;81.01;99309.22;5037750;28;20034;-82
2021/03/12 00:51:06;;;;;;;6.93;2.72;;;6.60;99.90;;;6.94;80.56;99329.06;5053512;28;20033;-83
2021/03/12 00:53:33;;;;;;;5.32;2.47;;;6.60;99.90;;;7.00;80.42;99319.28;5038928;28;20029;-84
2021/03/12 00:55:58;;;;;;;9.48;2.72;;;6.60;99.90;;;6.97;80.93;99330.34;5038130;28;20605;-82
2021/03/12 00:58:26;;;;;;;6.85;2.25;;;6.60;99.90;;;6.77;81.14;99310.91;5054190;28;20056;-85
2021/03/12 01:00:52;;;;;;;6.70;2.22;;;6.50;99.90;;;6.84;81.16;99337.97;5037229;28;20025;-82
2021/03/12 01:03:18;;;;;;;4.90;2.35;;;6.50;99.90;;;6.79;82.18;99336.31;5036967;28;20026;-83
2021/03/12 01:05:45;;;;;;;5.78;1.85;;;6.40;99.90;;;6.74;81.96;99342.13;5053423;28;20033;-82
2021/03/12 01:08:12;;;;;;;6.47;2.22;;;6.40;99.90;;;6.84;82.02;99354.63;5049869;28;20057;-81
2021/03/12 01:10:40;;;;;;;6.47;2.28;;;6.40;99.90;;;6.86;82.29;99352.31;5055904;28;20060;-85
2021/03/12 01:13:06;;;;;;;7.28;2.47;;;6.40;99.90;;;6.79;81.81;99358.53;5056960;28;20033;-83
2021/03/12 01:15:33;;;;;;;8.05;2.30;;;6.40;99.90;;;6.81;82.01;99361.72;5059433;28;20059;-84
2021/03/12 01:17:59;;;;;;;5.00;2.05;;;6.40;99.90;;;6.88;81.39;99363.84;5057957;28;20028;-85
2021/03/12 01:20:30;;;;;;;7.22;2.50;;;6.50;99.90;;;6.96;81.57;99375.91;5057453;28;20033;-83
2021/03/12 01:22:59;;;;;;;7.18;2.75;;;6.40;99.90;;;6.86;82.30;99380.06;5058527;28;20029;-84
2021/03/12 01:25:36;;;;;;;8.48;2.83;;;6.40;99.90;;;6.78;81.80;99376.31;5075686;28;20036;-84
2021/03/12 01:28:03;;;;;;;9.73;2.50;;;6.40;99.90;;;6.83;81.76;99384.38;5059540;28;20544;-83
2021/03/12 01:30:44;;;;;;;10.07;3.15;;;6.40;99.90;;;6.77;83.73;99388.63;5058832;28;20025;-84
2021/03/12 01:33:10;;;;;;;13.85;3.72;;;6.40;99.90;;;6.59;85.56;99387.41;5060428;28;20029;-85
2021/03/12 01:35:37;;;;;;;6.40;2.88;;;6.30;99.90;;;6.65;85.87;99376.81;5059071;28;20383;-86
2021/03/12 01:38:05;;;;;;;8.93;3.30;;;6.20;99.90;;;6.58;85.72;99360.81;5059742;28;20472;-86
2021/03/12 01:40:34;;;;;;;10.00;2.85;;;6.20;99.90;;;6.61;85.90;99364.84;5060393;28;20036;-84
2021/03/12 01:43:02;;;;;;;6.47;3.15;;;6.20;99.90;;;6.59;85.35;99381.84;5060296;28;20036;-82
2021/03/12 01:45:45;;;;;;;7.05;2.72;;;6.10;99.90;;;6.81;84.09;99421.97;5059954;28;20060;-83
2021/03/12 01:48:25;;;;;;;12.23;3.20;;;6.20;99.90;;;6.86;84.92;99425.28;5064372;28;20029;-85
2021/03/12 01:51:03;;;;;;;10.60;3.38;;;6.20;99.90;;;6.57;85.80;99414.72;5060325;28;20033;-85
2021/03/12 01:53:34;;;;;;;9.27;4.03;;;6.10;99.90;;;6.27;87.73;99413.56;5060206;28;20033;-83
2021/03/12 01:56:00;;;;;;;15.15;6.32;;;5.80;99.90;;;6.10;88.71;99413.97;5061686;28;20032;-84
2021/03/12 01:58:27;;;;;;;13.60;6.60;;;5.70;99.90;;;6.01;90.01;99416.91;5062880;28;20032;-85
2021/03/12 02:00:54;;;;;;;12.80;6.93;;;5.60;99.90;;;6.04;90.60;99437.53;5059549;28;20032;-84
2021/03/12 02:03:29;;;;;;;11.43;5.90;;;5.50;99.90;;;5.93;90.00;99442.81;5059161;28;20033;-83
2021/03/12 02:05:56;;;;;;;11.45;4.75;;;5.50;99.90;;;5.82;89.75;99430.63;5059533;28;20029;-82
2021/03/12 02:08:23;;;;;;;6.65;4.22;;;5.40;99.90;;;5.67;89.01;99446.06;5044478;28;20037;-83
2021/03/12 02:10:51;;;;;;;12.55;6.43;;;5.30;99.90;;;5.64;90.02;99446.78;5039143;28;20102;-83
2021/03/12 02:13:48;;;;;;;9.55;5.43;;;5.20;99.90;;;5.64;91.26;99440.44;5040919;28;20084;-82
2021/03/12 02:16:35;;;;;;;11.90;5.82;;;5.20;99.90;;;5.67;91.61;99445.25;5057055;28;20057;-85
2021/03/12 02:19:40;;;;;;;12.98;5.68;;;5.20;99.90;;;5.78;92.50;99458.22;5061545;28;20025;-83
2021/03/12 02:22:12;;;;;;;17.15;5.93;;;5.20;99.90;;;5.77;92.47;99441.97;5046488;28;20049;-83
2021/03/12 02:24:57;;;;;;;13.23;5.32;;;5.30;99.90;;;5.92;91.54;99440.41;5036329;28;20026;-84
2021/03/12 02:27:26;;;;;;;9.38;5.07;;;5.50;99.90;;;5.97;91.02;99442.94;5036046;28;20200;-83
2021/03/12 02:29:59;;;;;;;11.25;5.63;;;5.50;99.90;;;5.96;91.88;99452.38;5038006;28;20060;-84
2021/03/12 02:32:44;;;;;;;11.20;5.95;;;5.50;99.90;;;5.95;92.09;99456.31;5036121;28;20385;-84
2021/03/12 02:35:22;;;;;;;10.55;5.85;;;5.50;99.90;;;6.08;90.82;99466.16;5036701;28;20032;-83
2021/03/12 02:37:52;;;;;;;19.65;5.55;;;5.60;99.90;;;6.07;90.16;99456.25;5035664;28;20170;-83
2021/03/12 02:40:21;;;;;;;12.30;6.32;;;5.70;99.90;;;6.18;90.36;99477.53;5037134;28;20033;-84
2021/03/12 02:42:48;;;;;;;13.27;5.75;;;5.70;99.90;;;6.13;91.28;99485.31;5035563;28;20140;-85
2021/03/12 02:45:20;;;;;;;12.65;6.22;;;5.60;99.90;;;6.24;91.07;99484.41;5037551;28;20021;-86
2021/03/12 02:47:46;;;;;;;15.55;5.75;;;5.60;99.90;;;6.29;89.68;99486.13;5036065;28;20041;-83
2021/03/12 02:50:15;;;;;;;13.75;6.25;;;5.70;99.90;;;6.13;90.13;99477.78;5053959;23;20412;-79
2021/03/12 02:52:46;;;;;;;13.02;6.57;;;5.70;99.90;;;5.86;89.88;99488.94;5015439;28;20040;-78
2021/03/12 02:55:13;;;;;;;14.68;7.05;;;5.40;99.90;;;5.76;92.27;99481.91;5031171;28;20022;-81
2021/03/12 02:57:42;;;;;;;14.93;6.40;;;5.30;99.90;;;5.77;93.16;99495.44;5031477;28;20127;-80
2021/03/12 03:00:11;;;;;;;12.15;7.10;;;5.20;99.90;;;5.64;93.47;99491.09;5036981;28;20025;-80
2021/03/12 03:02:37;;;;;;;12.98;7.05;;;5.20;99.90;;;5.65;93.20;99495.47;5050311;28;20021;-79
2021/03/12 03:05:07;;;;;;;18.90;7.25;;;5.20;99.90;;;5.62;93.29;99504.47;5051285;28;20036;-82
2021/03/12 03:07:35;;;;;;;14.32;6.38;;;5.20;99.90;;;5.75;91.82;99500.50;5058021;28;20144;-79
2021/03/12 03:10:07;;;;;;;11.75;6.15;;;5.30;99.90;;;5.98;90.68;99511.03;5054492;28;20032;-82
2021/03/12 03:12:33;;;;;;;13.85;6.30;;;5.40;99.90;;;5.95;90.77;99517.28;5070176;28;20029;-79
2021/03/12 03:15:04;;;;;;;12.93;6.22;;;5.40;99.90;;;5.81;90.30;99514.91;5053684;28;20050;-80
2021/03/12 03:17:37;;;;;;;11.93;6.20;;;5.40;99.90;;;5.77;90.28;99511.25;5054672;28;20372;-79
2021/03/12 03:20:10;;;;;;;15.07;6.72;;;5.40;99.90;;;5.82;90.50;99520.09;5053428;28;20050;-81
2021/03/12 03:22:38;;;;;;;17.45;6.82;;;5.40;99.90;;;5.88;90.53;99523.44;5054758;28;20025;-79
2021/03/12 03:25:08;;;;;;;13.70;6.43;;;5.40;99.90;;;5.91;89.84;99521.94;5055791;28;20029;-82
2021/03/12 03:27:36;;;;;;;17.55;7.20;;;5.40;99.90;;;5.90;91.13;99531.41;5070199;28;20020;-80
2021/03/12 03:30:11;;;;;;;13.10;5.85;;;5.50;99.90;;;5.85;89.73;99535.19;5056313;28;20021;-80
2021/03/12 03:32:39;;;;;;;20.33;6.68;;;5.50;99.90;;;5.95;89.99;99533.91;5055168;28;20545;-79
2021/03/12 03:35:14;;;;;;;11.75;5.90;;;5.50;99.90;;;6.00;89.15;99539.22;5054898;28;20033;-78
2021/03/12 03:37:41;;;;;;;14.50;6.63;;;5.60;99.90;;;5.99;89.13;99545.91;5054073;28;20040;-79
2021/03/12 03:40:10;;;;;;;13.85;5.10;;;5.50;99.90;;;6.02;88.77;99545.19;5054558;28;20295;-82
2021/03/12 03:42:41;;;;;;;12.70;5.28;;;5.50;99.90;;;6.02;87.83;99551.56;5054654;28;20029;-79
2021/03/12 03:45:10;;;;;;;11.93;4.95;;;5.50;99.90;;;6.06;87.71;99549.69;5056224;28;20025;-80
2021/03/12 03:47:38;;;;;;;15.40;5.35;;;5.50;99.90;;;6.07;86.79;99542.97;5055678;28;20424;-80
2021/03/12 03:50:08;;;;;;;9.90;4.15;;;5.60;99.90;;;6.02;86.36;99556.28;5054749;28;20459;-82
2021/03/12 03:52:35;;;;;;;12.18;3.88;;;5.60;99.90;;;6.06;85.86;99558.00;5055601;28;20032;-81
2021/03/12 03:55:07;;;;;;;13.98;4.10;;;5.60;99.90;;;6.13;86.27;99565.72;5053266;28;20025;-81
2021/03/12 03:57:35;;;;;;;10.95;3.90;;;5.60;99.90;;;6.14;85.13;99561.75;5054404;28;20033;-81
2021/03/12 04:00:06;;;;;;;13.63;3.75;;;5.60;99.90;;;6.20;84.74;99574.19;5061716;28;20044;-83
2021/03/12 04:02:34;;;;;;;7.55;3.45;;;5.60;99.90;;;6.20;82.58;99574.19;5061777;28;20040;-79
2021/03/12 04:05:05;;;;;;;9.10;3.50;;;5.70;99.90;;;6.28;83.72;99578.78;5070391;28;20041;-79
2021/03/12 04:07:32;;;;;;;7.22;3.00;;;5.70;99.90;;;6.25;81.13;99577.53;5054954;28;20033;-82
2021/03/12 04:10:03;;;;;;;9.05;4.32;;;5.80;99.90;;;6.31;81.77;99567.78;5054341;28;20071;-79
2021/03/12 04:12:30;;;;;;;16.80;4.25;;;5.80;99.90;;;6.29;80.92;99578.41;5054387;28;20029;-79
2021/03/12 04:14:57;;;;;;;11.75;4.45;;;5.80;99.90;;;6.31;80.71;99578.88;5056754;28;20029;-80
2021/03/12 04:17:24;;;;;;;9.73;3.90;;;5.80;99.90;;;6.32;80.65;99586.03;5057760;28;20052;-82
2021/03/12 04:19:51;;;;;;;10.25;3.25;;;5.80;99.90;;;6.34;80.83;99580.13;5059706;28;20068;-80
2021/03/12 04:22:18;;;;;;;13.88;3.55;;;5.80;99.90;;;6.26;80.41;99594.97;5078522;28;20029;-83
2021/03/12 04:24:45;;;;;;;10.45;4.03;;;5.80;99.90;;;6.28;80.17;99589.88;5065249;28;20043;-82
2021/03/12 04:27:14;;;;;;;13.52;4.10;;;5.90;99.90;;;6.39;80.42;99593.72;5065770;28;20044;-84
2021/03/12 04:29:41;;;;;;;9.02;3.53;;;5.90;99.90;;;6.31;80.53;99592.75;5072665;28;20441;-80
2021/03/12 04:32:08;;;;;;;8.07;3.78;;;5.90;99.90;;;6.39;80.39;99604.03;5052475;28;20096;-78
2021/03/12 04:34:34;;;;;;;9.82;3.63;;;5.80;99.90;;;6.29;78.87;99605.38;5052207;28;20500;-79
2021/03/12 04:37:01;;;;;;;11.73;4.50;;;5.90;99.90;;;6.43;79.15;99613.25;5052706;28;20067;-80
2021/03/12 04:39:29;;;;;;;9.13;3.03;;;6.00;99.90;;;6.45;78.26;99613.72;5053233;28;20029;-81
2021/03/12 04:41:55;;;;;;;10.50;3.47;;;6.00;99.90;;;6.46;76.11;99609.75;5052105;28;20052;-79
2021/03/12 04:44:22;;;;;;;12.45;3.15;;;6.00;99.90;;;6.59;76.86;99619.63;5053081;28;20125;-81
2021/03/12 04:46:50;;;;;;;10.93;2.97;;;6.00;99.90;;;6.54;76.24;99617.94;5068737;28;20040;-80
2021/03/12 04:49:21;;;;;;;10.45;3.40;;;6.00;99.90;;;6.59;77.14;99631.53;5068918;28;20039;-80
2021/03/12 04:51:48;;;;;;;9.65;2.92;;;6.00;99.90;;;6.59;76.51;99627.94;5069394;28;20040;-79
2021/03/12 04:54:17;;;;;;;11.82;3.30;;;6.00;99.90;;;6.56;75.66;99634.19;5069079;28;20037;-79
2021/03/12 04:56:43;;;;;;;8.48;2.97;;;6.00;99.90;;;6.56;74.20;99631.44;5068516;28;20065;-79
2021/03/12 04:59:12;;;;;;;9.25;2.95;;;6.00;99.90;;;6.72;74.56;99640.56;5052834;28;20107;-79
2021/03/12 05:01:42;;;;;;;9.43;3.10;;;6.10;99.90;;;6.71;75.13;99633.44;5053780;28;20419;-78
2021/03/12 05:04:11;;;;;;;9.35;2.67;;;6.10;99.90;;;6.57;74.24;99644.16;5069704;28;20068;-82
2021/03/12 05:06:43;;;;;;;7.20;2.42;;;6.00;99.90;;;6.70;72.21;99654.81;5053358;28;20060;-82
2021/03/12 05:09:11;;;;;;;9.57;2.95;;;6.10;99.90;;;6.61;74.00;99654.19;5029107;28;20038;-80
2021/03/12 05:11:43;;;;;;;7.78;2.83;;;6.10;99.90;;;6.48;73.68;99651.81;5019358;28;20037;-82
2021/03/12 05:14:14;;;;;;;7.60;2.70;;;6.10;99.90;;;6.60;73.90;99663.66;5013745;28;20139;-81
2021/03/12 05:16:41;;;;;;;13.65;3.70;;;6.00;99.90;;;6.51;74.57;99665.78;5012058;28;20543;-81
2021/03/12 05:19:09;;;;;;;8.13;3.13;;;5.90;99.90;;;6.58;74.58;99665.97;5012012;28;20030;-81
2021/03/12 05:21:35;;;;;;;16.10;4.53;;;6.00;99.90;;;6.50;75.80;99666.13;5013247;28;20507;-82
2021/03/12 05:24:02;;;;;;;9.85;3.70;;;6.00;99.90;;;6.45;75.83;99664.44;5014131;28;20041;-79
2021/03/12 05:26:28;;;;;;;8.98;3.47;;;6.00;99.90;;;6.49;75.79;99664.50;5016795;28;20033;-79
2021/03/12 05:28:56;;;;;;;10.18;3.85;;;6.00;99.90;;;6.54;75.58;99672.59;5032300;28;20395;-79
2021/03/12 05:31:30;;;;;;;9.52;3.70;;;6.00;99.90;;;6.43;75.99;99655.66;5017103;28;20092;-80
2021/03/12 05:33:57;;;;;;;15.10;3.65;;;6.00;99.90;;;6.52;76.11;99666.63;5032394;28;20058;-81
2021/03/12 05:36:23;;;;;;;12.15;4.85;;;6.00;99.90;;;6.55;75.35;99663.91;5015606;28;20167;-81
2021/03/12 05:38:49;;;;;;;12.13;3.97;;;6.00;99.90;;;6.52;75.69;99681.25;5020731;28;20026;-82
2021/03/12 05:41:19;;;;;;;10.57;4.13;;;6.00;99.90;;;6.55;75.31;99686.09;5022531;28;20029;-81
2021/03/12 05:43:46;;;;;;;15.25;4.22;;;6.00;99.90;;;6.51;75.48;99676.09;5021750;28;20033;-78
2021/03/12 05:46:14;;;;;;;11.15;4.35;;;6.00;99.90;;;6.51;74.98;99690.75;5019612;28;20037;-81
2021/03/12 05:48:43;;;;;;;10.60;4.32;;;5.90;99.90;;;6.47;75.65;99683.50;5016908;28;20048;-82
2021/03/12 05:51:11;;;;;;;14.25;4.68;;;6.00;99.90;;;6.56;76.05;99686.91;5015387;28;20034;-83
2021/03/12 05:53:37;;;;;;;14.50;4.97;;;5.90;99.90;;;6.52;76.16;99686.03;5017317;28;20092;-82
2021/03/12 05:56:04;;;;;;;10.07;3.83;;;5.90;99.90;;;6.58;74.91;99696.47;5017703;28;20038;-83
2021/03/12 05:58:31;;;;;;;16.27;5.85;;;5.90;99.90;;;6.42;76.41;99687.34;5015388;28;20362;-82
2021/03/12 06:00:59;;;;;;;8.35;3.92;;;5.90;99.90;;;6.35;75.69;99699.03;5017013;28;20065;-81
2021/03/12 06:03:25;;;;;;;11.27;4.38;;;6.00;99.90;;;6.55;76.11;99696.41;5017131;28;20390;-80
2021/03/12 06:05:51;;;;;;;12.63;4.13;;;5.90;99.90;;;6.36;75.86;99686.78;5016910;28;20520;-79
2021/03/12 06:08:16;;;;;;;8.20;3.03;;;6.00;99.90;;;6.53;75.61;99691.19;5048351;28;20115;-82
2021/03/12 06:10:43;;;;;;;10.75;3.00;;;6.00;99.90;;;6.54;75.58;99705.88;5071796;28;20544;-80
2021/03/12 06:13:09;;;;;;;10.77;3.38;;;5.90;99.90;;;6.48;75.91;99698.97;5071491;28;20127;-81
2021/03/12 06:15:43;;;;;;;12.80;4.18;;;6.00;99.90;;;6.46;75.12;99704.06;5062796;28;20060;-80
2021/03/12 06:18:27;;;;;;;10.27;3.42;;;5.90;99.90;;;6.39;75.67;99699.13;5064460;28;20464;-83
2021/03/12 06:20:54;;;;;;;8.55;3.13;;;5.90;99.90;;;6.42;75.69;99704.00;5090698;28;20067;-80
2021/03/12 06:23:39;;;;;;;13.32;2.53;;;5.90;99.90;;;6.32;75.15;99705.25;5058726;28;20037;-81
2021/03/12 06:26:06;;;;;;;8.75;2.50;;;5.80;99.90;;;6.34;74.62;99708.50;5071450;28;20031;-79
2021/03/12 06:28:32;;;;;;;8.88;2.50;;;5.90;99.90;;;6.39;75.15;99712.19;5057026;28;20065;-80
2021/03/12 06:30:59;;;;;;;12.27;2.80;;;5.80;99.90;;;6.42;74.98;99714.28;5073457;28;20025;-80
2021/03/12 06:33:34;;;;;;;9.45;2.60;;;5.80;99.90;;;6.31;75.44;99705.63;5073661;28;20041;-82
2021/03/12 06:36:04;;;;;;;14.43;2.92;;;5.80;99.90;;;6.45;75.21;99710.78;5071979;28;20129;-80
2021/03/12 06:54:32;;;;;;;9.85;2.10;;;5.90;99.90;;;6.51;75.92;99723.25;5056671;28;20040;-78
2021/03/12 06:56:59;;;;;;;11.77;1.98;;;5.90;99.90;;;6.59;76.01;99725.84;5057187;28;20025;-80
2021/03/12 06:59:33;;;;;;;15.38;3.20;;;6.00;99.90;;;6.64;75.02;99727.56;5057688;28;20021;-78
2021/03/12 07:02:06;;;;;;;10.90;2.78;;;6.00;99.90;;;6.63;75.35;99724.00;5073256;28;20033;-82
2021/03/12 07:04:34;;;;;;;11.52;2.35;;;6.10;99.90;;;6.71;75.44;99727.78;5071850;28;20457;-80
2021/03/12 07:07:01;;;;;;;13.20;2.58;;;6.20;99.90;;;6.74;75.65;99721.50;5071483;28;20033;-80
2021/03/12 07:09:29;;;;;;;16.35;2.05;;;6.20;99.90;;;6.85;74.26;99725.38;5056356;28;20029;-79
2021/03/12 07:12:04;;;;;;;11.35;2.38;;;6.30;99.90;;;6.90;74.32;99725.13;5056417;28;20112;-80
2021/03/12 07:14:31;;;;;;;15.98;2.20;;;6.30;99.90;;;7.06;74.42;99733.47;5055396;28;20061;-81
2021/03/12 07:17:00;;;;;;;11.35;2.13;;;6.40;99.90;;;7.07;73.71;99726.75;5070922;28;20059;-79
2021/03/12 07:19:26;;;;;;;16.23;3.72;;;6.60;99.90;;;7.26;73.06;99733.19;5072373;28;20024;-79
2021/03/12 07:21:58;;;;;;;12.88;2.28;;;6.70;99.90;;;7.24;73.64;99731.94;5056706;28;20039;-79
2021/03/12 07:24:26;;;;;;;14.70;2.83;;;6.80;99.90;;;7.36;74.00;99731.84;5058007;28;20051;-78
2021/03/12 07:27:01;;;;;;;8.68;2.55;;;6.80;99.90;;;7.37;74.07;99731.50;5054853;28;20029;-81
2021/03/12 07:29:33;;;;;;;17.48;3.83;;;6.80;99.90;;;7.48;72.99;99739.31;5054251;28;20031;-82
2021/03/12 07:32:04;;;;;;;11.57;2.97;;;6.80;99.90;;;7.35;73.55;99753.28;5069973;28;20504;-79
2021/03/12 07:34:38;;;;;;;15.27;3.58;;;6.80;99.90;;;7.17;72.75;99751.19;5053160;28;20040;-83
2021/03/12 07:37:09;;;;;;;19.58;4.20;;;6.80;99.90;;;7.33;73.30;99757.56;5054549;28;20048;-80
2021/03/12 07:39:44;;;;;;;14.13;2.75;;;6.80;99.90;;;7.37;73.48;99756.50;5054426;28;20031;-83
2021/03/12 07:42:18;;;;;;;15.52;2.88;;;6.80;99.90;;;7.35;73.27;99756.03;5070005;28;20058;-76
2021/03/12 07:44:50;;;;;;;13.35;3.13;;;6.80;99.90;;;7.35;73.34;99769.16;5054979;28;20394;-82
2021/03/12 07:47:27;;;;;;;11.30;2.78;;;6.80;99.90;;;7.37;73.08;99766.81;5069233;28;20040;-81
2021/03/12 07:49:55;;;;;;;10.88;2.67;;;6.90;99.90;;;7.30;73.02;99755.50;5052595;28;20040;-78
2021/03/12 07:52:52;;;;;;;15.85;3.30;;;6.90;99.90;;;7.42;72.59;99761.78;5053642;28;20044;-79
2021/03/12 07:55:36;;;;;;;16.90;3.38;;;6.90;99.90;;;7.55;72.28;99765.28;5055551;28;20088;-80
2021/03/12 07:58:09;;;;;;;11.55;3.63;;;7.00;99.90;;;7.56;72.95;99778.03;5069290;28;20017;-80
2021/03/12 08:00:56;;;;;;;11.23;3.25;;;7.00;99.90;;;7.66;71.25;99763.59;5070268;28;20070;-80
2021/03/12 08:03:36;;;;;;;13.00;2.85;;;7.10;99.90;;;7.67;71.81;99767.16;5069062;28;20075;-80
2021/03/12 08:06:29;;;;;;;16.30;3.78;;;7.10;99.90;;;7.72;70.83;99767.69;5069594;28;20032;-79
2021/03/12 08:08:55;;;;;;;16.25;2.75;;;7.20;99.90;;;7.76;71.17;99767.78;5069127;28;20024;-80
2021/03/12 08:11:34;;;;;;;13.60;2.80;;;7.30;99.90;;;7.87;71.27;99777.16;5053998;28;20039;-80
2021/03/12 08:14:09;;;;;;;12.93;2.70;;;7.30;99.90;;;7.95;70.43;99777.00;5054112;28;20036;-81
2021/03/12 08:16:58;;;;;;;15.30;3.45;;;7.40;99.90;;;7.75;71.03;99778.09;5054225;28;20115;-81
2021/03/12 08:19:40;;;;;;;12.15;3.05;;;7.40;99.90;;;7.96;71.33;99781.38;5054658;28;20439;-81
2021/03/12 08:22:25;;;;;;;18.38;3.08;;;7.50;99.90;;;8.10;69.88;99780.09;5055633;28;20029;-81
2021/03/12 08:24:53;;;;;;;19.27;3.47;;;7.60;99.90;;;8.29;70.35;99783.75;5047304;28;20420;-80
2021/03/12 08:27:49;;;;;;;21.58;3.55;;;7.60;99.90;;;8.37;68.51;99793.06;5072123;28;20488;-81
2021/03/12 08:30:24;;;;;;;13.77;2.80;;;7.80;99.90;;;8.33;69.18;99793.00;5071383;28;20040;-79
2021/03/12 08:32:53;;;;;;;17.92;3.20;;;7.80;99.90;;;8.21;69.01;99784.75;5055529;28;20033;-81
2021/03/12 08:35:42;;;;;;;18.20;3.28;;;7.80;99.90;;;7.87;68.71;99772.41;5071920;28;20123;-82
2021/03/12 08:38:30;;;;;;;10.32;2.95;;;7.70;99.90;;;8.09;68.92;99787.63;5085617;28;20311;-81
2021/03/12 08:41:07;;;;;;;8.90;2.53;;;7.60;99.90;;;8.22;69.71;99780.78;5077717;28;20029;-80
2021/03/12 08:43:40;;;;;;;14.60;2.83;;;7.70;99.90;;;8.25;70.09;99782.03;5056509;28;20028;-80
2021/03/12 08:46:25;;;;;;;13.00;3.17;;;7.70;99.90;;;8.09;69.27;99761.81;5055590;28;20079;-80
2021/03/12 08:49:06;;;;;;;17.38;2.70;;;7.70;99.90;;;8.37;69.36;99776.38;5054846;28;20143;-80
2021/03/12 08:51:33;;;;;;;14.15;2.55;;;7.80;99.90;;;8.42;68.29;99778.84;5055571;28;20094;-78
2021/03/12 08:54:02;;;;;;;8.90;2.38;;;8.00;99.90;;;8.74;68.04;99785.91;5054849;28;20384;-79
2021/03/12 08:56:36;;;;;;;9.32;2.20;;;8.20;99.90;;;9.17;66.58;99775.59;5070640;28;20029;-78
2021/03/12 08:59:06;;;;;;;14.43;3.67;;;8.50;99.90;;;9.14;66.22;99774.38;5072297;28;20083;-80
2021/03/12 09:01:34;;;;;;;12.55;2.42;;;8.70;99.90;;;8.98;66.68;99763.31;5065755;28;20039;-80
2021/03/12 09:04:04;;;;;;;13.35;3.38;;;8.60;99.90;;;9.05;65.49;99767.41;5058806;28;20032;-81
2021/03/12 09:06:36;;;;;;;11.95;2.58;;;8.60;99.90;;;8.87;65.74;99776.22;5059816;28;20041;-80
2021/03/12 09:09:05;;;;;;;10.40;3.10;;;8.50;99.90;;;9.00;65.54;99754.59;5074733;28;20021;-80
2021/03/12 09:11:32;;;;;;;16.05;2.50;;;8.60;99.90;;;9.22;65.29;99772.50;5078270;28;20055;-79
2021/03/12 09:14:03;;;;;;;10.50;2.83;;;8.60;99.90;;;8.97;64.55;99772.84;5075668;28;20388;-82
2021/03/12 09:16:31;;;;;;;12.93;3.00;;;8.60;99.90;;;9.15;65.74;99772.38;5076710;28;20515;-82
2021/03/12 09:18:58;;;;;;;9.35;2.40;;;8.60;99.90;;;9.32;64.63;99772.69;5065277;28;20022;-82
2021/03/12 09:21:28;;;;;;;9.23;2.38;;;8.70;99.90;;;9.14;63.86;99773.56;5045833;28;20018;-81
2021/03/12 09:24:01;;;;;;;9.32;2.35;;;8.70;99.90;;;9.31;64.34;99753.56;5043029;28;20034;-82
2021/03/12 09:26:35;;;;;;;13.02;2.53;;;8.80;99.90;;;9.26;63.76;99765.00;5062830;28;20516;-83
2021/03/12 09:29:07;;;;;;;14.88;2.85;;;8.90;99.90;;;9.39;63.43;99767.25;5040728;28;20034;-83
2021/03/12 09:31:39;;;;;;;13.68;2.38;;;8.90;99.90;;;9.30;64.10;99751.97;5041309;28;20025;-81
2021/03/12 09:34:15;;;;;;;7.90;2.05;;;8.80;99.90;;;9.39;64.71;99758.09;5056896;28;20254;-82
2021/03/12 09:36:47;;;;;;;14.07;2.47;;;8.90;99.90;;;9.35;63.86;99751.63;5040497;28;20443;-81
2021/03/12 09:39:22;;;;;;;15.85;3.22;;;8.90;99.90;;;9.43;64.64;99751.41;5054430;28;20512;-81
2021/03/12 09:42:04;;;;;;;15.90;2.70;;;9.00;99.90;;;9.36;63.94;99742.91;5055114;28;20465;-78
2021/03/12 09:44:32;;;;;;;13.50;3.28;;;8.90;99.90;;;9.36;65.02;99736.53;5040073;28;20033;-83
2021/03/12 09:47:05;;;;;;;13.10;2.70;;;8.90;99.90;;;9.67;64.75;99741.03;5055199;28;20040;-81
2021/03/12 09:49:43;;;;;;;10.45;2.92;;;9.10;99.90;;;10.15;63.75;99733.81;5038053;28;20033;-81
2021/03/12 09:52:17;;;;;;;10.05;2.20;;;9.40;99.90;;;10.44;62.09;99739.41;5040545;28;20033;-79
2021/03/12 09:54:50;;;;;;;16.73;3.28;;;9.80;99.90;;;10.17;61.49;99743.44;5038942;28;20116;-81
2021/03/12 09:57:22;;;;;;;17.17;3.15;;;9.80;99.90;;;9.66;62.87;99734.66;5040184;28;20103;-81
2021/03/12 09:59:50;;;;;;;14.63;2.72;;;9.40;99.90;;;9.88;63.04;99746.94;5039401;28;20029;-82
2021/03/12 10:02:19;;;;;;;13.93;2.83;;;9.40;99.90;;;9.92;63.18;99742.25;5057494;28;20037;-83
2021/03/12 10:04:59;;;;;;;13.18;2.63;;;9.50;99.90;;;10.53;61.76;99733.56;5042722;28;20089;-80
2021/03/12 10:07:38;;;;;;;12.82;2.85;;;9.90;99.90;;;10.53;61.22;99725.16;5061460;28;20047;-82
2021/03/12 10:10:28;;;;;;;12.43;2.92;;;10.00;99.90;;;10.17;61.35;99734.25;5075154;28;20511;-81
2021/03/12 10:12:59;;;;;;;9.75;3.05;;;9.80;99.90;;;10.51;62.46;99728.34;5058001;28;20488;-83
2021/03/12 10:15:36;;;;;;;12.60;2.53;;;10.00;99.90;;;10.26;61.31;99721.63;5075991;28;20031;-81
2021/03/12 10:18:04;;;;;;;14.80;2.97;;;9.90;99.90;;;9.73;61.98;99723.59;5077327;28;20021;-80
2021/03/12 10:20:35;;;;;;;12.95;3.25;;;9.50;99.90;;;9.66;62.94;99725.50;5076010;28;20029;-81
2021/03/12 10:23:10;;;;;;;18.20;3.47;;;9.30;99.90;;;10.01;61.47;99712.09;5075111;28;20043;-81
2021/03/12 10:25:48;;;;;;;17.88;3.78;;;9.50;99.90;;;10.54;61.23;99722.00;5076920;28;20353;-81
2021/03/12 10:28:22;;;;;;;18.30;3.55;;;9.90;99.90;;;10.75;60.67;99717.84;5061176;28;20053;-81
2021/03/12 10:31:00;;;;;;;16.65;3.20;;;10.20;99.90;;;10.75;59.21;99715.88;5061057;28;20056;-82
2021/03/12 10:33:31;;;;;;;11.48;2.60;;;10.30;99.90;;;10.15;60.01;99714.28;5077835;28;20051;-79
2021/03/12 10:36:05;;;;;;;13.88;2.95;;;9.90;99.90;;;10.00;60.63;99705.69;5063002;28;20078;-80
2021/03/12 10:38:35;;;;;;;8.98;2.63;;;9.60;99.90;;;9.97;60.45;99700.88;5079506;28;20086;-80
2021/03/12 10:41:16;;;;;;;10.52;2.92;;;9.50;99.90;;;9.71;61.25;99714.81;5063187;28;20028;-80
2021/03/12 10:43:42;;;;;;;17.17;3.00;;;9.40;99.90;;;9.74;61.41;99707.69;5078341;28;20036;-79
2021/03/12 10:46:11;;;;;;;9.90;3.00;;;9.30;99.90;;;9.84;60.53;99710.63;5077620;28;20436;-82
2021/03/12 10:48:45;;;;;;;17.10;3.25;;;9.40;99.90;;;10.02;61.46;99699.72;5076422;28;20063;-80
2021/03/12 10:51:16;;;;;;;10.85;2.65;;;9.50;99.90;;;9.84;60.44;99687.53;5076827;28;20047;-80
2021/03/12 10:53:56;;;;;;;13.43;2.80;;;9.40;99.90;;;10.17;59.57;99679.25;5060028;28;20032;-78
2021/03/12 10:56:27;;;;;;;10.90;2.50;;;9.60;99.90;;;10.44;58.04;99694.75;5076590;28;20032;-79
2021/03/12 10:58:56;;;;;;;15.40;2.60;;;9.90;99.90;;;10.66;58.06;99684.63;5077608;28;20036;-80
2021/03/12 11:01:28;;;;;;;11.73;2.60;;;10.10;99.90;;;11.27;57.91;99666.47;5082281;28;20021;-79